Time;durP1;ratioP1;P1;durP2;ratioP2;P2;SDS_P1;SDS_P2;PMS_P1;PMS_P2;Temp;Humidity;BMP_temperature;BMP_pressure;BME280_temperature;BME280_humidity;BME280_pressure;Samples;Min_cycle;Max_cycle;Signal;HPM_P1;HPM_P2
2023/12/20 00:01:26;;;;;;;0.10;0.10;;;6.20;99.90;;;;;;5064884;28;20040;-72
2023/12/20 00:03:52;;;;;;;0.52;0.20;;;6.20;99.90;;;;;;5069633;28;20055;-70
2023/12/20 00:06:17;;;;;;;2.00;0.80;;;6.20;99.90;;;;;;5065798;28;20067;-70
2023/12/20 00:08:44;;;;;;;1.45;0.32;;;6.10;99.90;;;;;;5069819;28;20483;-70
2023/12/20 00:11:09;;;;;;;2.28;0.30;;;6.00;99.90;;;;;;5067895;28;20044;-70
2023/12/20 00:13:35;;;;;;;0.10;0.10;;;5.90;99.90;;;;;;5063879;28;20043;-71
2023/12/20 00:16:00;;;;;;;0.10;0.10;;;5.70;99.90;;;;;;5067185;28;20135;-71
2023/12/20 00:18:28;;;;;;;0.10;0.10;;;5.60;99.90;;;;;;5066153;28;20139;-69
2023/12/20 00:20:53;;;;;;;0.63;0.30;;;5.50;99.90;;;;;;5070904;28;20036;-69
2023/12/20 00:23:19;;;;;;;0.10;0.10;;;5.40;99.90;;;;;;5059629;28;20051;-70
2023/12/20 00:25:45;;;;;;;0.17;0.17;;;5.40;99.90;;;;;;5095417;28;20520;-69
2023/12/20 00:28:10;;;;;;;0.10;0.10;;;5.40;99.90;;;;;;5048489;28;20041;-71
2023/12/20 00:30:36;;;;;;;0.75;0.20;;;5.30;99.90;;;;;;5060894;28;20071;-72
2023/12/20 00:33:02;;;;;;;0.15;0.15;;;5.30;99.90;;;;;;5067199;28;20116;-70
2023/12/20 00:35:28;;;;;;;0.20;0.20;;;5.40;99.90;;;;;;5066120;28;20115;-71
2023/12/20 00:37:53;;;;;;;9.25;0.40;;;5.50;99.90;;;;;;5060892;28;20054;-69
2023/12/20 00:40:20;;;;;;;0.05;0.05;;;5.50;99.90;;;;;;5067357;28;20041;-70
2023/12/20 00:42:46;;;;;;;0.20;0.20;;;5.60;99.90;;;;;;5087918;28;20049;-71
2023/12/20 00:45:12;;;;;;;0.15;0.10;;;5.60;99.90;;;;;;5066739;28;20066;-69
2023/12/20 00:47:38;;;;;;;0.10;0.10;;;5.60;99.90;;;;;;5065110;28;20090;-70
2023/12/20 00:50:04;;;;;;;0.00;0.00;;;5.70;99.90;;;;;;5065921;28;20084;-70
2023/12/20 00:52:29;;;;;;;0.00;0.00;;;5.80;99.90;;;;;;5061652;28;20041;-71
2023/12/20 00:54:55;;;;;;;0.13;0.13;;;5.80;99.90;;;;;;5066162;28;20032;-69
2023/12/20 00:57:20;;;;;;;0.10;0.10;;;5.80;99.90;;;;;;5064312;28;20044;-69
2023/12/20 00:59:46;;;;;;;0.10;0.10;;;5.80;99.90;;;;;;5066170;28;20087;-69
2023/12/20 01:02:11;;;;;;;0.63;0.13;;;5.80;99.90;;;;;;5059394;28;20041;-70
2023/12/20 01:04:37;;;;;;;0.10;0.10;;;5.90;99.90;;;;;;5048085;28;20586;-70
2023/12/20 01:07:03;;;;;;;0.20;0.20;;;5.90;99.90;;;;;;5062615;28;20033;-70
2023/12/20 01:09:28;;;;;;;0.15;0.15;;;5.90;99.90;;;;;;5062090;28;20083;-70
2023/12/20 01:11:54;;;;;;;0.20;0.10;;;5.90;99.90;;;;;;5065477;28;20044;-74
2023/12/20 01:14:19;;;;;;;0.10;0.10;;;6.00;99.90;;;;;;5089101;28;20463;-70
2023/12/20 01:16:45;;;;;;;1.50;1.40;;;6.00;99.90;;;;;;5064439;28;20045;-70
2023/12/20 01:19:11;;;;;;;0.17;0.17;;;6.00;99.90;;;;;;5063296;28;20040;-71
2023/12/20 01:21:37;;;;;;;0.30;0.30;;;6.10;99.90;;;;;;5061923;28;20502;-70
2023/12/20 01:24:02;;;;;;;0.10;0.10;;;6.00;99.90;;;;;;5064899;28;20423;-69
2023/12/20 01:26:28;;;;;;;2.90;0.98;;;6.10;99.90;;;;;;5057215;28;20037;-69
2023/12/20 01:28:53;;;;;;;0.63;0.63;;;6.00;99.90;;;;;;5068489;28;20040;-71
2023/12/20 01:31:19;;;;;;;0.10;0.10;;;6.00;99.90;;;;;;5063578;28;20036;-73
2023/12/20 01:33:45;;;;;;;0.30;0.30;;;6.00;99.90;;;;;;5066902;28;20085;-71
2023/12/20 01:36:11;;;;;;;0.40;0.10;;;6.00;99.90;;;;;;5066822;28;20081;-70
2023/12/20 01:38:37;;;;;;;0.32;0.32;;;6.00;99.90;;;;;;5068053;28;20082;-72
2023/12/20 01:41:04;;;;;;;0.30;0.30;;;6.00;99.90;;;;;;5066232;28;20040;-71
2023/12/20 01:43:30;;;;;;;1.55;0.20;;;6.00;99.90;;;;;;5066871;28;20440;-70
2023/12/20 01:45:59;;;;;;;0.30;0.25;;;6.00;99.90;;;;;;5070825;28;20115;-71
2023/12/20 01:48:25;;;;;;;0.38;0.38;;;6.00;99.90;;;;;;5066813;28;20155;-69
2023/12/20 01:50:52;;;;;;;1.08;0.40;;;6.00;99.90;;;;;;5068914;28;20119;-70
2023/12/20 01:53:21;;;;;;;0.10;0.10;;;6.10;99.90;;;;;;5067305;28;20047;-70
2023/12/20 01:55:50;;;;;;;0.03;0.03;;;6.00;99.90;;;;;;5067982;28;20037;-71
2023/12/20 01:58:16;;;;;;;0.52;0.52;;;6.10;99.90;;;;;;5072194;28;20110;-74
2023/12/20 02:00:42;;;;;;;0.00;0.00;;;6.10;99.90;;;;;;5063110;28;20422;-71
2023/12/20 02:03:07;;;;;;;0.28;0.28;;;6.20;99.90;;;;;;5067001;28;20062;-70
2023/12/20 02:05:35;;;;;;;0.10;0.10;;;6.20;99.90;;;;;;5064434;28;20058;-74
2023/12/20 02:08:01;;;;;;;0.10;0.10;;;6.30;99.90;;;;;;5068061;28;20032;-71
2023/12/20 02:10:27;;;;;;;5.65;0.65;;;6.30;99.90;;;;;;5068815;28;20499;-72
2023/12/20 02:12:52;;;;;;;0.10;0.10;;;6.40;99.90;;;;;;5071542;28;20158;-73
2023/12/20 02:15:18;;;;;;;0.30;0.30;;;6.40;99.90;;;;;;5066950;28;20039;-71
2023/12/20 02:17:45;;;;;;;0.10;0.10;;;6.40;99.90;;;;;;5090220;28;20532;-72
2023/12/20 02:20:10;;;;;;;4.57;0.43;;;6.50;99.90;;;;;;5067966;28;20036;-69
2023/12/20 02:22:36;;;;;;;0.47;0.30;;;6.40;99.90;;;;;;5066518;28;20094;-72
2023/12/20 02:25:02;;;;;;;0.10;0.10;;;6.50;99.90;;;;;;5068678;28;20442;-72
2023/12/20 02:27:28;;;;;;;0.08;0.08;;;6.40;99.90;;;;;;5062266;28;20067;-69
2023/12/20 02:29:54;;;;;;;0.20;0.20;;;6.50;99.90;;;;;;5069322;28;20036;-70
2023/12/20 02:32:21;;;;;;;0.10;0.10;;;6.60;99.90;;;;;;5074271;28;20040;-71
2023/12/20 02:34:48;;;;;;;6.07;0.28;;;6.50;99.90;;;;;;5067692;28;20107;-70
2023/12/20 02:37:13;;;;;;;0.10;0.10;;;6.50;99.90;;;;;;5064376;28;20040;-71
2023/12/20 02:39:39;;;;;;;0.55;0.20;;;6.50;99.90;;;;;;5069928;28;20046;-72
2023/12/20 02:42:04;;;;;;;2.83;2.58;;;6.50;99.90;;;;;;5066843;28;20036;-70
2023/12/20 02:44:30;;;;;;;0.00;0.00;;;6.50;99.90;;;;;;5088235;28;20047;-70
2023/12/20 02:46:55;;;;;;;0.10;0.10;;;6.50;99.90;;;;;;5046628;28;20032;-70
2023/12/20 02:49:21;;;;;;;0.60;0.30;;;6.40;99.90;;;;;;5067307;28;20503;-73
2023/12/20 02:51:47;;;;;;;0.10;0.10;;;6.40;99.90;;;;;;5064492;28;20162;-75
2023/12/20 02:54:12;;;;;;;0.30;0.30;;;6.30;99.90;;;;;;5061302;28;20041;-71
2023/12/20 02:56:38;;;;;;;0.10;0.10;;;6.30;99.90;;;;;;5061385;28;20047;-72
2023/12/20 02:59:05;;;;;;;0.10;0.10;;;6.30;99.90;;;;;;5068469;28;20040;-74
2023/12/20 03:01:31;;;;;;;0.20;0.20;;;6.30;99.90;;;;;;5065795;28;20128;-71
2023/12/20 03:03:57;;;;;;;0.45;0.45;;;6.40;99.90;;;;;;5065815;28;20119;-71
2023/12/20 03:06:22;;;;;;;23.90;1.13;;;6.40;99.90;;;;;;5069024;28;20635;-72
2023/12/20 03:08:48;;;;;;;5.70;1.00;;;6.50;99.90;;;;;;5061367;28;20141;-72
2023/12/20 03:11:13;;;;;;;0.10;0.10;;;6.60;99.90;;;;;;5072601;28;20032;-72
2023/12/20 03:13:39;;;;;;;0.20;0.20;;;6.60;99.90;;;;;;5048457;28;20123;-75
2023/12/20 03:16:13;;;;;;;0.93;0.73;;;6.70;99.90;;;;;;5069397;28;20118;-73
2023/12/20 03:18:39;;;;;;;0.25;0.25;;;6.70;99.90;;;;;;5064803;28;20067;-71
2023/12/20 03:21:05;;;;;;;0.13;0.13;;;6.70;99.90;;;;;;5065866;28;20498;-71
2023/12/20 03:23:32;;;;;;;2.92;0.52;;;6.70;99.90;;;;;;5063295;28;20048;-72
2023/12/20 03:26:00;;;;;;;0.43;0.43;;;6.70;99.90;;;;;;5062016;28;20483;-73
2023/12/20 03:28:26;;;;;;;1.17;1.17;;;6.70;99.90;;;;;;5064966;28;20071;-69
2023/12/20 03:30:52;;;;;;;0.10;0.10;;;6.70;99.90;;;;;;5070960;28;20032;-71
2023/12/20 03:33:17;;;;;;;2.35;0.30;;;6.70;99.90;;;;;;5068491;28;20037;-69
2023/12/20 03:35:43;;;;;;;0.15;0.15;;;6.70;99.90;;;;;;5069515;28;20040;-71
2023/12/20 03:38:09;;;;;;;3.03;1.77;;;6.70;99.90;;;;;;5068083;28;20098;-72
2023/12/20 03:40:35;;;;;;;0.20;0.20;;;6.70;99.90;;;;;;5065776;28;20036;-72
2023/12/20 03:43:00;;;;;;;0.75;0.75;;;6.70;99.90;;;;;;5086273;28;20036;-71
2023/12/20 03:45:26;;;;;;;2.40;0.65;;;6.80;99.90;;;;;;5066593;28;20048;-71
2023/12/20 03:47:55;;;;;;;0.13;0.10;;;6.80;99.90;;;;;;5070584;28;20036;-73
2023/12/20 03:50:23;;;;;;;0.20;0.20;;;6.80;99.90;;;;;;5066169;28;20048;-73
2023/12/20 03:52:49;;;;;;;2.40;0.80;;;6.80;99.90;;;;;;5063353;28;20037;-71
2023/12/20 03:55:16;;;;;;;0.10;0.10;;;6.80;99.90;;;;;;5085229;28;20044;-71
2023/12/20 03:57:42;;;;;;;0.05;0.05;;;6.70;99.90;;;;;;5060744;28;20041;-74
2023/12/20 04:00:11;;;;;;;1.75;0.68;;;6.70;99.90;;;;;;5050774;28;20105;-71
2023/12/20 04:02:45;;;;;;;0.10;0.10;;;6.70;99.90;;;;;;5089918;28;20313;-71
2023/12/20 04:05:11;;;;;;;0.47;0.47;;;6.70;99.90;;;;;;5066552;28;20047;-72
2023/12/20 04:07:37;;;;;;;0.82;0.82;;;6.70;99.90;;;;;;5064444;28;20033;-70
2023/12/20 04:10:06;;;;;;;0.30;0.30;;;6.70;99.90;;;;;;5067464;28;20040;-72
2023/12/20 04:12:33;;;;;;;0.20;0.20;;;6.70;99.90;;;;;;5075953;28;20125;-71
2023/12/20 04:14:58;;;;;;;0.70;0.38;;;6.80;99.90;;;;;;5088677;28;21243;-71
2023/12/20 04:17:24;;;;;;;0.47;0.47;;;6.80;99.90;;;;;;5047434;28;20546;-70
2023/12/20 04:19:51;;;;;;;0.10;0.10;;;6.80;99.90;;;;;;5069353;28;20072;-73
2023/12/20 04:22:18;;;;;;;1.08;0.65;;;6.80;99.90;;;;;;5064596;28;20036;-69
2023/12/20 04:24:43;;;;;;;3.25;0.85;;;6.80;99.90;;;;;;5067927;28;20127;-70
2023/12/20 04:27:09;;;;;;;0.10;0.10;;;6.90;99.90;;;;;;5061653;28;21302;-73
2023/12/20 04:29:35;;;;;;;0.20;0.20;;;6.80;99.90;;;;;;5067830;28;20131;-74
2023/12/20 04:32:00;;;;;;;0.30;0.30;;;6.90;99.90;;;;;;5090423;28;20044;-71
2023/12/20 04:34:26;;;;;;;3.08;1.45;;;6.80;99.90;;;;;;5047686;28;20045;-70
2023/12/20 04:36:52;;;;;;;0.80;0.75;;;6.80;99.90;;;;;;5063298;28;20052;-70
2023/12/20 04:39:18;;;;;;;0.50;0.45;;;6.90;99.90;;;;;;5062428;28;20032;-69
2023/12/20 04:41:43;;;;;;;0.95;0.95;;;6.90;99.90;;;;;;5095752;28;20521;-71
2023/12/20 04:44:09;;;;;;;1.20;1.10;;;6.90;99.90;;;;;;5070066;28;20044;-69
2023/12/20 04:46:35;;;;;;;1.33;1.27;;;6.90;99.90;;;;;;5062543;28;20087;-72
2023/12/20 04:49:00;;;;;;;0.57;0.57;;;6.90;99.90;;;;;;5067067;28;20158;-71
2023/12/20 04:51:26;;;;;;;0.75;0.40;;;6.90;99.90;;;;;;5064293;28;20123;-68
2023/12/20 04:53:52;;;;;;;0.38;0.38;;;6.90;99.90;;;;;;5049842;28;20098;-70
2023/12/20 04:56:17;;;;;;;0.30;0.30;;;6.90;99.90;;;;;;5047828;28;20081;-72
2023/12/20 04:58:43;;;;;;;0.40;0.40;;;6.90;99.90;;;;;;5065716;28;20158;-69
2023/12/20 05:01:09;;;;;;;0.10;0.10;;;6.90;99.90;;;;;;5069481;28;20040;-71
2023/12/20 05:03:36;;;;;;;0.20;0.20;;;7.00;99.90;;;;;;5062210;28;20040;-71
2023/12/20 05:06:01;;;;;;;1.73;0.57;;;7.10;99.90;;;;;;5059906;28;20050;-70
2023/12/20 05:08:27;;;;;;;2.17;0.55;;;7.10;99.90;;;;;;5050075;28;20040;-70
2023/12/20 05:10:56;;;;;;;3.20;2.22;;;7.00;99.90;;;;;;5069571;28;20398;-72
2023/12/20 05:13:21;;;;;;;0.65;0.65;;;7.00;99.90;;;;;;5073055;28;20040;-72
2023/12/20 05:15:47;;;;;;;1.58;1.48;;;7.10;99.90;;;;;;5065167;28;20039;-70
2023/12/20 05:18:13;;;;;;;5.03;0.85;;;7.10;99.90;;;;;;5068300;28;20039;-73
2023/12/20 05:20:39;;;;;;;2.58;0.45;;;7.10;99.90;;;;;;5068000;28;20060;-70
2023/12/20 05:23:05;;;;;;;0.10;0.10;;;7.10;99.90;;;;;;5069572;28;20037;-71
2023/12/20 05:25:30;;;;;;;0.10;0.10;;;7.10;99.90;;;;;;5070235;28;20117;-73
2023/12/20 05:27:57;;;;;;;0.08;0.08;;;7.10;99.90;;;;;;5071765;28;20464;-70
2023/12/20 05:30:22;;;;;;;0.00;0.00;;;7.20;99.90;;;;;;5070669;28;20384;-73
2023/12/20 05:32:48;;;;;;;0.15;0.15;;;7.20;99.90;;;;;;5069673;28;20043;-72
2023/12/20 05:35:15;;;;;;;0.10;0.10;;;7.20;99.90;;;;;;5071006;28;20511;-69
2023/12/20 05:37:41;;;;;;;0.05;0.05;;;7.20;99.90;;;;;;5048977;28;20048;-71
2023/12/20 05:40:10;;;;;;;0.20;0.20;;;7.30;99.90;;;;;;5065991;28;20043;-72
2023/12/20 05:42:37;;;;;;;0.73;0.73;;;7.20;99.90;;;;;;5065523;28;20105;-71
2023/12/20 05:45:03;;;;;;;1.00;0.43;;;7.30;99.90;;;;;;5066308;28;20044;-70
2023/12/20 05:47:29;;;;;;;0.38;0.38;;;7.30;99.90;;;;;;5068983;28;20063;-70
2023/12/20 05:49:55;;;;;;;1.77;0.80;;;7.30;99.90;;;;;;5078552;28;20506;-73
2023/12/20 05:52:20;;;;;;;0.10;0.10;;;7.40;99.90;;;;;;5067922;28;20483;-71
2023/12/20 05:54:46;;;;;;;2.20;0.90;;;7.40;99.90;;;;;;5066550;28;20032;-71
2023/12/20 05:57:11;;;;;;;4.47;0.55;;;7.40;99.90;;;;;;5072931;28;20601;-69
2023/12/20 05:59:37;;;;;;;0.10;0.10;;;7.30;99.90;;;;;;5065277;28;20047;-71
2023/12/20 06:02:04;;;;;;;0.15;0.15;;;7.30;99.90;;;;;;5066227;28;20040;-71
2023/12/20 06:04:30;;;;;;;1.40;0.82;;;7.30;99.90;;;;;;5067676;28;20063;-73
2023/12/20 06:06:55;;;;;;;0.10;0.10;;;7.40;99.90;;;;;;5067826;28;20032;-70
2023/12/20 06:09:21;;;;;;;0.10;0.10;;;7.40;99.90;;;;;;5066143;28;20094;-71
2023/12/20 06:11:47;;;;;;;0.17;0.17;;;7.40;99.90;;;;;;5068381;28;20040;-69
2023/12/20 06:14:12;;;;;;;0.10;0.10;;;7.50;99.90;;;;;;5064881;28;20032;-73
2023/12/20 06:16:38;;;;;;;0.30;0.30;;;7.50;99.90;;;;;;5066924;28;20066;-69
2023/12/20 06:19:03;;;;;;;4.78;1.35;;;7.50;99.90;;;;;;5063801;28;20085;-72
2023/12/20 06:21:29;;;;;;;0.00;0.00;;;7.50;99.90;;;;;;5067012;28;20048;-71
2023/12/20 06:23:55;;;;;;;7.03;0.90;;;7.50;99.90;;;;;;5063850;28;20517;-72
2023/12/20 06:26:20;;;;;;;5.78;1.55;;;7.50;99.90;;;;;;5066392;28;20033;-70
2023/12/20 06:28:46;;;;;;;0.10;0.10;;;7.40;99.90;;;;;;5067120;28;20040;-70
2023/12/20 06:31:11;;;;;;;0.10;0.10;;;7.40;99.90;;;;;;5050380;28;20028;-71
2023/12/20 06:33:41;;;;;;;0.52;0.52;;;7.40;99.90;;;;;;5066971;28;20127;-71
2023/12/20 06:36:06;;;;;;;0.28;0.28;;;7.40;99.90;;;;;;5062660;28;20325;-73
2023/12/20 06:38:32;;;;;;;0.38;0.38;;;7.40;99.90;;;;;;5052361;28;20040;-72
2023/12/20 06:40:58;;;;;;;0.13;0.13;;;7.40;99.90;;;;;;5069307;28;20040;-70
2023/12/20 06:43:24;;;;;;;0.30;0.30;;;7.50;99.90;;;;;;5066720;28;20119;-71
2023/12/20 06:45:50;;;;;;;1.10;0.45;;;7.50;99.90;;;;;;5068231;28;20131;-70
2023/12/20 06:48:16;;;;;;;0.88;0.45;;;7.50;99.90;;;;;;5059705;28;20411;-69
2023/12/20 06:50:42;;;;;;;0.73;0.65;;;7.50;99.90;;;;;;5051301;28;20032;-71
2023/12/20 06:53:07;;;;;;;1.02;0.95;;;7.50;99.90;;;;;;5088975;28;21835;-70
2023/12/20 06:55:37;;;;;;;0.20;0.20;;;7.50;99.90;;;;;;5062708;28;20040;-72
2023/12/20 06:58:03;;;;;;;0.20;0.10;;;7.50;99.90;;;;;;5063351;28;20070;-68
2023/12/20 07:00:30;;;;;;;0.10;0.10;;;7.50;99.90;;;;;;5065770;28;20044;-71
2023/12/20 07:02:55;;;;;;;0.08;0.08;;;7.50;99.90;;;;;;5066845;28;20040;-70
2023/12/20 07:05:21;;;;;;;0.00;0.00;;;7.60;99.90;;;;;;5063438;28;20043;-72
2023/12/20 07:07:47;;;;;;;0.25;0.25;;;7.50;99.90;;;;;;5052035;28;20116;-68
2023/12/20 07:10:13;;;;;;;0.30;0.28;;;7.50;99.90;;;;;;5065744;28;20048;-70
2023/12/20 07:12:38;;;;;;;0.10;0.10;;;7.50;99.90;;;;;;5064893;28;20422;-70
2023/12/20 07:15:05;;;;;;;0.22;0.22;;;7.50;99.90;;;;;;5066831;28;20082;-71
2023/12/20 07:17:33;;;;;;;0.10;0.10;;;7.50;99.90;;;;;;5064874;28;20043;-72
2023/12/20 07:19:58;;;;;;;0.30;0.30;;;7.60;99.90;;;;;;5066884;28;20040;-73
2023/12/20 07:22:24;;;;;;;0.20;0.20;;;7.60;99.90;;;;;;5071932;28;20653;-72
2023/12/20 07:24:52;;;;;;;0.98;0.60;;;7.60;99.90;;;;;;5061857;28;20041;-70
2023/12/20 07:27:17;;;;;;;0.10;0.10;;;7.60;99.90;;;;;;5046851;28;20040;-72
2023/12/20 07:29:43;;;;;;;0.30;0.30;;;7.60;99.90;;;;;;5087382;28;20090;-71
2023/12/20 07:32:08;;;;;;;4.85;1.00;;;7.70;99.90;;;;;;5056369;28;20047;-70
2023/12/20 07:34:34;;;;;;;0.30;0.30;;;7.60;99.90;;;;;;5066688;28;20029;-69
2023/12/20 07:37:00;;;;;;;0.73;0.30;;;7.70;99.90;;;;;;5064938;28;20056;-69
2023/12/20 07:39:25;;;;;;;1.23;0.50;;;7.70;99.90;;;;;;5062568;28;20435;-71
2023/12/20 07:41:51;;;;;;;1.70;1.30;;;7.70;99.90;;;;;;5068488;28;20044;-71
2023/12/20 07:44:16;;;;;;;0.20;0.20;;;7.70;99.90;;;;;;5059433;28;20131;-70
2023/12/20 07:46:42;;;;;;;0.30;0.30;;;7.80;99.90;;;;;;5065377;28;20485;-70
2023/12/20 07:49:08;;;;;;;0.50;0.10;;;7.80;99.90;;;;;;5064368;28;20406;-68
2023/12/20 07:51:34;;;;;;;0.13;0.13;;;7.80;99.90;;;;;;5066462;28;20479;-70
2023/12/20 07:53:59;;;;;;;0.20;0.20;;;7.80;99.90;;;;;;5064262;28;20047;-71
2023/12/20 07:56:25;;;;;;;2.08;0.85;;;7.80;99.90;;;;;;5067216;28;20032;-72
2023/12/20 07:58:50;;;;;;;0.65;0.25;;;7.80;99.90;;;;;;5061337;28;20040;-70
2023/12/20 08:01:18;;;;;;;0.65;0.40;;;7.70;99.90;;;;;;5064512;28;20036;-71
2023/12/20 08:03:43;;;;;;;1.25;0.55;;;7.80;99.90;;;;;;5058947;28;20123;-73
2023/12/20 08:06:09;;;;;;;0.20;0.20;;;7.90;99.90;;;;;;5068032;28;20131;-69
2023/12/20 08:08:34;;;;;;;3.42;0.73;;;7.90;99.90;;;;;;5066380;28;20033;-72
2023/12/20 08:11:00;;;;;;;0.40;0.40;;;7.90;99.90;;;;;;5067919;28;20039;-69
2023/12/20 08:13:27;;;;;;;0.10;0.10;;;7.90;99.90;;;;;;5060076;28;20044;-74
2023/12/20 08:15:53;;;;;;;10.23;0.82;;;8.00;99.90;;;;;;5064484;28;20548;-72
2023/12/20 08:18:19;;;;;;;0.20;0.13;;;8.00;99.90;;;;;;5066414;28;20458;-72
2023/12/20 08:20:44;;;;;;;0.98;0.75;;;8.00;99.90;;;;;;5063234;28;20072;-70
2023/12/20 08:23:10;;;;;;;2.38;2.17;;;8.10;99.90;;;;;;5066754;28;20131;-73
2023/12/20 08:25:35;;;;;;;3.60;0.52;;;8.10;99.90;;;;;;5060772;28;20101;-71
2023/12/20 08:28:02;;;;;;;0.22;0.22;;;8.10;99.90;;;;;;5064854;28;20448;-73
2023/12/20 08:30:29;;;;;;;0.10;0.10;;;8.20;99.90;;;;;;5045303;28;20036;-69
2023/12/20 08:32:55;;;;;;;0.20;0.20;;;8.30;99.90;;;;;;5065466;28;20048;-73
2023/12/20 08:35:20;;;;;;;0.35;0.17;;;8.20;99.90;;;;;;5059827;28;20104;-69
2023/12/20 08:37:46;;;;;;;0.40;0.13;;;8.20;99.90;;;;;;5090014;28;20091;-70
2023/12/20 08:40:12;;;;;;;0.57;0.57;;;8.20;99.90;;;;;;5064314;28;20089;-72
2023/12/20 08:42:37;;;;;;;0.20;0.20;;;8.20;99.90;;;;;;5066795;28;20717;-69
2023/12/20 08:45:04;;;;;;;1.25;0.40;;;8.20;99.90;;;;;;5071093;28;20462;-71
2023/12/20 08:47:29;;;;;;;0.10;0.10;;;8.10;99.90;;;;;;5066200;28;20242;-70
2023/12/20 08:49:58;;;;;;;0.10;0.10;;;8.10;99.90;;;;;;5067147;28;20028;-70
2023/12/20 08:52:23;;;;;;;2.67;0.40;;;8.20;99.90;;;;;;5077433;28;20067;-70
2023/12/20 08:54:53;;;;;;;0.30;0.30;;;8.20;99.90;;;;;;5072067;28;20033;-69
2023/12/20 08:57:23;;;;;;;0.20;0.20;;;8.30;99.90;;;;;;5069113;28;20438;-72
2023/12/20 08:59:49;;;;;;;0.38;0.38;;;8.30;99.90;;;;;;5070568;28;20087;-72
2023/12/20 09:02:16;;;;;;;1.60;0.47;;;8.40;99.90;;;;;;5068095;28;20440;-71
2023/12/20 09:04:42;;;;;;;0.40;0.40;;;8.40;99.90;;;;;;5090179;28;20171;-70
2023/12/20 09:07:24;;;;;;;0.75;0.75;;;8.40;99.90;;;;;;5064834;28;20143;-70
2023/12/20 09:09:51;;;;;;;1.90;0.95;;;8.40;99.90;;;;;;5069559;28;20094;-72
2023/12/20 09:12:21;;;;;;;0.38;0.38;;;8.50;99.90;;;;;;5070246;28;20037;-70
2023/12/20 09:14:49;;;;;;;3.17;0.65;;;8.50;99.90;;;;;;5089991;28;20045;-70
2023/12/20 09:17:16;;;;;;;0.30;0.30;;;8.50;99.90;;;;;;5074270;28;20065;-70
2023/12/20 09:19:41;;;;;;;0.40;0.22;;;8.50;99.90;;;;;;5076395;28;20127;-72
2023/12/20 09:22:07;;;;;;;0.08;0.08;;;8.50;99.90;;;;;;5069020;28;20115;-69
2023/12/20 09:24:33;;;;;;;7.22;0.95;;;8.50;99.90;;;;;;5049464;28;20457;-68
2023/12/20 09:26:59;;;;;;;1.38;0.63;;;8.40;99.90;;;;;;5062233;28;20033;-71
2023/12/20 09:29:25;;;;;;;0.30;0.30;;;8.40;99.90;;;;;;5073091;28;20040;-68
2023/12/20 09:31:50;;;;;;;0.57;0.57;;;8.30;99.90;;;;;;5067434;28;20069;-69
2023/12/20 09:34:17;;;;;;;0.40;0.22;;;8.30;99.90;;;;;;5063573;28;20458;-72
2023/12/20 09:36:49;;;;;;;0.28;0.28;;;8.30;99.90;;;;;;5070172;28;20044;-69
2023/12/20 09:39:19;;;;;;;0.20;0.20;;;8.40;99.90;;;;;;5066702;28;20082;-71
2023/12/20 09:42:00;;;;;;;0.50;0.50;;;8.50;99.90;;;;;;5070483;28;20044;-68
2023/12/20 09:44:26;;;;;;;0.40;0.35;;;8.50;99.90;;;;;;5068418;28;20048;-70
2023/12/20 09:46:54;;;;;;;0.47;0.47;;;8.60;99.90;;;;;;5071994;28;20228;-72
2023/12/20 09:49:20;;;;;;;2.17;1.02;;;8.70;99.90;;;;;;5052756;28;20044;-71
2023/12/20 09:51:51;;;;;;;0.10;0.10;;;8.80;99.90;;;;;;5057019;28;20037;-71
2023/12/20 09:54:18;;;;;;;0.15;0.15;;;8.90;99.90;;;;;;5060070;28;20041;-68
2023/12/20 09:56:47;;;;;;;1.08;0.70;;;8.90;99.90;;;;;;5072178;28;20043;-68
2023/12/20 09:59:13;;;;;;;1.80;0.45;;;8.90;99.90;;;;;;5061257;28;20052;-71
2023/12/20 10:01:40;;;;;;;0.10;0.10;;;8.60;99.90;;;;;;5051690;28;20476;-68
2023/12/20 10:04:08;;;;;;;0.10;0.10;;;8.00;99.90;;;;;;5052575;28;20044;-69
2023/12/20 10:06:41;;;;;;;0.20;0.20;;;7.30;99.90;;;;;;5061849;28;20036;-69
2023/12/20 10:09:07;;;;;;;0.10;0.10;;;6.90;99.90;;;;;;5059301;28;20028;-71
2023/12/20 10:11:34;;;;;;;0.10;0.10;;;6.70;99.90;;;;;;5071742;28;20093;-68
2023/12/20 10:14:03;;;;;;;2.38;0.55;;;6.60;99.90;;;;;;5067625;28;20049;-69
2023/12/20 10:16:29;;;;;;;0.03;0.03;;;6.50;99.90;;;;;;5075831;28;20047;-68
2023/12/20 10:18:56;;;;;;;0.35;0.22;;;6.50;99.90;;;;;;5053852;28;20058;-68
2023/12/20 10:21:22;;;;;;;2.08;0.17;;;6.60;99.90;;;;;;5072656;28;20044;-68
2023/12/20 10:23:55;;;;;;;1.50;0.45;;;6.60;99.90;;;;;;5062943;28;20037;-68
2023/12/20 10:26:22;;;;;;;1.63;0.82;;;6.60;99.90;;;;;;5069609;28;20033;-70
2023/12/20 10:28:53;;;;;;;0.10;0.10;;;6.60;99.90;;;;;;5057656;28;20121;-69
2023/12/20 10:31:29;;;;;;;0.00;0.00;;;6.70;99.90;;;;;;5070674;28;20040;-69
2023/12/20 10:33:59;;;;;;;5.53;0.25;;;6.70;99.90;;;;;;5085462;28;20037;-67
2023/12/20 10:36:26;;;;;;;0.55;0.55;;;6.70;99.90;;;;;;5052575;28;20407;-68
2023/12/20 10:39:05;;;;;;;0.00;0.00;;;6.70;99.90;;;;;;5052933;28;20048;-66
2023/12/20 10:41:32;;;;;;;2.05;0.57;;;6.70;99.90;;;;;;5085841;28;20048;-67
2023/12/20 10:44:02;;;;;;;0.10;0.10;;;6.70;99.90;;;;;;5059659;28;20040;-68
2023/12/20 10:46:29;;;;;;;0.10;0.10;;;6.60;99.90;;;;;;5069459;28;20475;-69
2023/12/20 10:48:56;;;;;;;0.10;0.10;;;6.60;99.90;;;;;;5069662;28;20513;-69
2023/12/20 10:51:26;;;;;;;0.22;0.22;;;6.60;99.90;;;;;;5064357;28;20047;-69
2023/12/20 10:53:52;;;;;;;0.45;0.45;;;6.60;99.90;;;;;;5051174;28;20051;-69
2023/12/20 10:56:19;;;;;;;0.20;0.20;;;6.60;99.90;;;;;;5088188;28;20082;-69
2023/12/20 10:58:47;;;;;;;0.10;0.10;;;6.60;99.90;;;;;;5051188;28;20388;-69
2023/12/20 11:01:18;;;;;;;6.50;0.82;;;6.60;99.90;;;;;;5061562;28;20029;-68
2023/12/20 11:03:54;;;;;;;3.30;0.93;;;6.60;99.90;;;;;;5051092;28;20033;-68
2023/12/20 11:06:41;;;;;;;0.08;0.08;;;6.50;99.90;;;;;;5046215;28;20079;-68
2023/12/20 11:09:25;;;;;;;0.10;0.10;;;6.60;99.90;;;;;;5068874;28;20051;-68
2023/12/20 11:12:06;;;;;;;0.10;0.10;;;6.60;99.90;;;;;;5063279;28;20036;-68
2023/12/20 11:14:43;;;;;;;0.10;0.10;;;6.50;99.90;;;;;;5048302;28;20043;-68
2023/12/20 11:17:14;;;;;;;0.05;0.05;;;6.50;99.90;;;;;;5064911;28;20096;-68
2023/12/20 11:19:55;;;;;;;0.08;0.08;;;6.50;99.90;;;;;;5050583;28;20056;-68
2023/12/20 11:22:21;;;;;;;0.45;0.45;;;6.60;99.90;;;;;;5050786;28;20048;-69
2023/12/20 11:24:47;;;;;;;0.98;0.43;;;6.60;99.90;;;;;;5050623;28;20044;-69
2023/12/20 11:27:14;;;;;;;0.38;0.32;;;6.70;99.90;;;;;;5063964;28;20089;-68
2023/12/20 11:29:40;;;;;;;0.30;0.30;;;6.80;99.90;;;;;;5051762;28;20053;-70
2023/12/20 11:32:27;;;;;;;0.43;0.22;;;6.80;99.90;;;;;;5064647;28;20041;-70
2023/12/20 11:35:16;;;;;;;0.10;0.10;;;6.80;99.90;;;;;;5053571;28;20044;-70
2023/12/20 11:37:44;;;;;;;4.85;0.52;;;6.90;99.90;;;;;;5066301;28;20040;-69
2023/12/20 11:40:17;;;;;;;0.30;0.30;;;6.90;99.90;;;;;;5051481;28;20102;-69
2023/12/20 11:42:45;;;;;;;0.10;0.10;;;6.90;99.90;;;;;;5092556;28;20045;-69
2023/12/20 11:45:19;;;;;;;0.52;0.20;;;6.90;99.90;;;;;;5064584;28;20457;-67
2023/12/20 11:47:53;;;;;;;0.10;0.10;;;6.90;99.90;;;;;;5068608;28;20033;-68
2023/12/20 11:50:19;;;;;;;0.20;0.20;;;6.90;99.90;;;;;;5065699;28;20044;-69
2023/12/20 11:52:44;;;;;;;0.13;0.13;;;6.90;99.90;;;;;;5067657;28;20094;-69
2023/12/20 11:55:11;;;;;;;0.10;0.10;;;6.90;99.90;;;;;;5066762;28;20040;-70
2023/12/20 11:57:36;;;;;;;1.08;1.08;;;6.90;99.90;;;;;;5065749;28;20057;-69
2023/12/20 12:00:03;;;;;;;0.30;0.30;;;6.90;99.90;;;;;;5065615;28;20124;-67
2023/12/20 12:02:29;;;;;;;0.00;0.00;;;6.80;99.90;;;;;;5065285;28;21853;-68
2023/12/20 12:04:56;;;;;;;0.10;0.10;;;6.80;99.90;;;;;;5063430;28;20048;-69
2023/12/20 12:07:22;;;;;;;0.10;0.10;;;6.80;99.90;;;;;;5062818;28;20391;-70
2023/12/20 12:09:48;;;;;;;0.00;0.00;;;6.70;99.90;;;;;;5066783;28;20056;-69
2023/12/20 12:12:14;;;;;;;6.50;0.40;;;6.80;99.90;;;;;;5062350;28;20547;-68
2023/12/20 12:14:40;;;;;;;0.50;0.50;;;6.80;99.90;;;;;;5070874;28;20041;-69
2023/12/20 12:17:13;;;;;;;0.10;0.10;;;6.70;99.90;;;;;;5048532;28;20060;-68
2023/12/20 12:19:40;;;;;;;2.78;0.35;;;6.80;99.90;;;;;;5049859;28;20120;-71
2023/12/20 12:22:13;;;;;;;0.25;0.10;;;6.70;99.90;;;;;;5062640;28;20055;-69
2023/12/20 12:24:49;;;;;;;2.92;2.65;;;6.70;99.90;;;;;;5098420;28;20037;-69
2023/12/20 12:27:15;;;;;;;0.30;0.30;;;6.70;99.90;;;;;;5062666;28;20510;-68
2023/12/20 12:30:02;;;;;;;0.98;0.90;;;6.70;99.90;;;;;;5066158;28;20403;-70
2023/12/20 12:32:32;;;;;;;0.10;0.10;;;6.70;99.90;;;;;;5063421;28;20040;-69
2023/12/20 12:34:57;;;;;;;0.80;0.57;;;6.60;99.90;;;;;;5070354;28;20136;-68
2023/12/20 12:37:26;;;;;;;0.08;0.08;;;6.60;99.90;;;;;;5062877;28;20119;-69
2023/12/20 12:39:54;;;;;;;1.25;0.35;;;6.60;99.90;;;;;;5069262;28;20128;-69
2023/12/20 12:42:21;;;;;;;3.30;0.25;;;6.60;99.90;;;;;;5046072;28;20048;-68
2023/12/20 12:44:47;;;;;;;0.60;0.43;;;6.60;99.90;;;;;;5069370;28;20040;-68
2023/12/20 12:47:13;;;;;;;0.08;0.08;;;6.60;99.90;;;;;;5074080;28;20094;-67
2023/12/20 12:49:40;;;;;;;0.40;0.30;;;6.60;99.90;;;;;;5067583;28;20044;-68
2023/12/20 12:52:06;;;;;;;0.10;0.10;;;6.60;99.90;;;;;;5061835;28;20040;-73
2023/12/20 12:54:31;;;;;;;0.00;0.00;;;6.60;99.90;;;;;;5070161;28;20047;-69
2023/12/20 12:56:58;;;;;;;0.10;0.10;;;6.60;99.90;;;;;;5071441;28;20038;-67